Time;durP1;ratioP1;P1;durP2;ratioP2;P2;SDS_P1;SDS_P2;PMS_P1;PMS_P2;Temp;Humidity;BMP_temperature;BMP_pressure;BME280_temperature;BME280_humidity;BME280_pressure;Samples;Min_cycle;Max_cycle;Signal;HPM_P1;HPM_P2
2022/04/01 00:01:05;;;;;;;17.00;8.07;;;410.50;1817.60;;;;;;5095776;28;20060;-63
2022/04/01 00:03:31;;;;;;;18.75;8.07;;;410.50;1843.20;;;;;;5095687;28;20103;-63
2022/04/01 00:05:56;;;;;;;19.05;7.78;;;410.50;1817.60;;;;;;5095818;28;20481;-63
2022/04/01 00:08:22;;;;;;;22.85;7.90;;;410.50;1817.60;;;;;;5095212;28;20044;-63
2022/04/01 00:10:48;;;;;;;19.95;8.57;;;410.50;1817.60;;;;;;5095602;28;20073;-61
2022/04/01 00:13:14;;;;;;;17.67;7.65;;;410.50;1817.60;;;;;;5095338;28;20466;-64
2022/04/01 00:15:39;;;;;;;17.38;7.20;;;410.50;1817.60;;;;;;5095480;28;20035;-64
2022/04/01 00:18:05;;;;;;;20.35;7.55;;;410.40;1817.60;;;;;;5095480;28;20427;-61
2022/04/01 00:20:31;;;;;;;19.40;7.30;;;410.40;1817.60;;;;;;5095509;28;20085;-62
2022/04/01 00:22:57;;;;;;;17.73;8.07;;;410.50;1817.60;;;;;;5095116;28;20462;-59
2022/04/01 00:25:23;;;;;;;14.70;6.32;;;410.50;1817.60;;;;;;5095341;28;20031;-62
2022/04/01 00:27:50;;;;;;;19.33;7.20;;;410.50;1817.60;;;;;;5095406;28;20428;-63
2022/04/01 00:30:16;;;;;;;20.98;5.95;;;410.50;1817.60;;;;;;5095153;28;20386;-59
2022/04/01 00:32:42;;;;;;;20.85;6.82;;;410.50;1817.60;;;;;;5095112;28;20032;-59
2022/04/01 00:35:08;;;;;;;16.60;6.82;;;410.50;1817.60;;;;;;5095251;28;20024;-66
2022/04/01 00:37:34;;;;;;;19.65;7.00;;;410.50;1817.60;;;;;;5095130;28;20024;-60
2022/04/01 00:40:01;;;;;;;17.58;6.65;;;410.50;1792.00;;;;;;5095165;28;20028;-63
2022/04/01 00:42:27;;;;;;;22.02;6.32;;;435.20;1817.60;;;;;;5094838;28;20077;-62
2022/04/01 00:44:53;;;;;;;16.23;5.97;;;435.20;1792.00;;;;;;5094694;28;20358;-59
2022/04/01 00:47:19;;;;;;;12.45;5.65;;;410.50;1792.00;;;;;;5094874;28;20031;-59
2022/04/01 00:49:46;;;;;;;20.55;6.45;;;410.50;1792.00;;;;;;5094952;28;20028;-59
2022/04/01 00:52:16;;;;;;;16.60;6.53;;;410.50;1817.60;;;;;;5094554;28;20063;-62
2022/04/01 00:54:42;;;;;;;17.52;6.72;;;410.50;1817.60;;;;;;5095058;28;20076;-59
2022/04/01 00:57:10;;;;;;;14.48;6.60;;;410.50;1817.60;;;;;;5094278;28;20024;-63
2022/04/01 00:59:37;;;;;;;20.92;7.18;;;410.50;1817.60;;;;;;5094756;28;20023;-62
2022/04/01 01:02:04;;;;;;;18.30;6.60;;;410.50;1817.60;;;;;;5094311;28;20020;-59
2022/04/01 01:04:30;;;;;;;24.42;6.97;;;410.50;1843.20;;;;;;5094323;28;20366;-63
2022/04/01 01:06:58;;;;;;;18.27;6.13;;;410.50;1843.20;;;;;;5094660;28;20024;-63
2022/04/01 01:09:25;;;;;;;16.33;6.50;;;410.50;1843.20;;;;;;5094299;28;20054;-62
2022/04/01 01:11:52;;;;;;;16.60;5.80;;;410.50;1843.20;;;;;;5094312;28;20024;-62
2022/04/01 01:14:33;;;;;;;17.02;6.32;;;435.20;1843.20;;;;;;5094335;28;20024;-59
2022/04/01 01:16:59;;;;;;;16.38;6.40;;;410.50;1843.20;;;;;;5094344;28;20043;-63
2022/04/01 01:19:26;;;;;;;17.27;5.88;;;410.50;1843.20;;;;;;5094402;28;20048;-59
2022/04/01 01:21:54;;;;;;;18.40;6.28;;;410.50;1843.20;;;;;;5095196;28;20394;-60
2022/04/01 01:24:31;;;;;;;22.80;6.40;;;410.50;1843.20;;;;;;5094145;28;20160;-63
2022/04/01 01:26:58;;;;;;;22.40;5.32;;;410.50;1843.20;;;;;;5094216;28;20043;-59
2022/04/01 01:29:27;;;;;;;19.35;5.93;;;410.50;1843.20;;;;;;5094243;28;20020;-63
2022/04/01 01:31:55;;;;;;;19.55;6.47;;;410.50;1817.60;;;;;;5094076;28;20032;-59
2022/04/01 01:34:22;;;;;;;18.30;6.20;;;410.50;1843.20;;;;;;5094163;28;20047;-59
2022/04/01 01:36:48;;;;;;;20.83;6.10;;;410.50;1817.60;;;;;;5094180;28;20024;-60
2022/04/01 01:39:14;;;;;;;24.33;6.68;;;435.20;1843.20;;;;;;5093915;28;20027;-62
2022/04/01 01:41:42;;;;;;;18.90;7.25;;;410.50;1843.20;;;;;;5093905;28;20024;-65
2022/04/01 01:44:08;;;;;;;22.95;7.32;;;410.50;1843.20;;;;;;5094158;28;20032;-59
2022/04/01 01:46:34;;;;;;;16.85;6.15;;;410.50;1817.60;;;;;;5094005;28;20469;-60
2022/04/01 01:49:00;;;;;;;16.42;6.18;;;410.50;1843.20;;;;;;5093944;28;20115;-60
2022/04/01 01:56:54;;;;;;;19.02;6.40;;;410.50;1817.60;;;;;;5093731;28;20066;-63
2022/04/01 01:59:20;;;;;;;15.52;5.50;;;410.40;1817.60;;;;;;5092555;28;20036;-64
2022/04/01 02:01:45;;;;;;;22.40;6.05;;;410.40;1817.60;;;;;;5093877;28;20389;-65
2022/04/01 02:04:11;;;;;;;28.00;6.60;;;410.40;1817.60;;;;;;5094007;28;20020;-60
2022/04/01 02:06:38;;;;;;;21.48;6.28;;;410.40;1817.60;;;;;;5093699;28;20466;-65
2022/04/01 02:09:04;;;;;;;21.58;6.18;;;410.40;1792.00;;;;;;5096153;28;20046;-59
2022/04/01 02:11:30;;;;;;;19.55;7.35;;;410.40;1817.60;;;;;;5098314;28;20373;-59
2022/04/01 02:13:56;;;;;;;16.98;5.88;;;410.40;1792.00;;;;;;5098035;28;20040;-59
2022/04/01 02:16:22;;;;;;;25.65;6.68;;;410.30;1792.00;;;;;;5097615;28;20036;-60
2022/04/01 02:18:49;;;;;;;19.58;7.10;;;410.40;1792.00;;;;;;5097316;28;20020;-65
2022/04/01 02:21:16;;;;;;;17.58;5.85;;;410.40;1817.60;;;;;;5097790;28;20388;-64
2022/04/01 02:23:44;;;;;;;18.30;6.45;;;410.30;1792.00;;;;;;5097643;28;20415;-64
2022/04/01 02:26:10;;;;;;;18.77;6.28;;;410.30;1792.00;;;;;;5097329;28;20032;-59
2022/04/01 02:28:37;;;;;;;22.13;6.72;;;410.30;1792.00;;;;;;5097698;28;20028;-60
2022/04/01 02:31:04;;;;;;;16.40;5.53;;;410.20;1817.60;;;;;;5097348;28;20488;-60
2022/04/01 02:33:35;;;;;;;19.58;5.65;;;410.30;1817.60;;;;;;5097345;28;20473;-60
2022/04/01 02:46:19;;;;;;;14.65;5.80;;;410.20;1817.60;;;;;;5097296;28;20107;-60
2022/04/01 02:48:45;;;;;;;16.80;5.88;;;410.10;1817.60;;;;;;5097015;28;20051;-63
2022/04/01 03:01:30;;;;;;;14.50;4.55;;;410.10;1817.60;;;;;;5096852;28;20028;-64
2022/04/01 03:03:56;;;;;;;17.45;5.38;;;410.00;1817.60;;;;;;5096991;28;20054;-59
2022/04/01 03:14:22;;;;;;;16.25;4.63;;;410.00;1817.60;;;;;;5119481;27;20066;-66
2022/04/01 03:16:48;;;;;;;11.82;4.50;;;410.00;1817.60;;;;;;5116897;28;20047;-65
2022/04/01 03:19:16;;;;;;;14.07;4.32;;;410.00;1817.60;;;;;;5098204;28;20030;-61
2022/04/01 04:20:33;;;;;;;13.55;4.20;;;384.80;1843.20;;;;;;5349637;22;20072;-63
2022/04/01 04:23:10;;;;;;;;;;;384.70;1843.20;;;;;;5072680;28;20083;-61
2022/04/01 04:25:37;;;;;;;15.15;4.80;;;384.70;1868.80;;;;;;5075098;28;19904;-62
2022/04/01 04:28:10;;;;;;;14.75;4.13;;;384.70;1868.80;;;;;;5075083;28;20100;-63
2022/04/01 04:30:53;;;;;;;15.88;4.82;;;384.70;1868.80;;;;;;5074392;28;20032;-63
2022/04/01 04:33:23;;;;;;;15.30;4.85;;;384.70;1868.80;;;;;;5074827;28;20489;-64
2022/04/01 04:35:49;;;;;;;21.30;5.18;;;384.70;1868.80;;;;;;5074608;28;20028;-63
2022/04/01 04:38:20;;;;;;;17.38;5.75;;;384.70;1843.20;;;;;;5074819;28;20028;-63
2022/04/01 04:40:46;;;;;;;19.15;5.25;;;384.70;1843.20;;;;;;5074831;28;20032;-64
2022/04/01 04:43:18;;;;;;;13.00;4.22;;;384.70;1868.80;;;;;;5074690;28;20051;-63
2022/04/01 04:45:47;;;;;;;14.32;4.40;;;384.70;1868.80;;;;;;5074660;28;20024;-62
2022/04/01 04:48:14;;;;;;;16.98;5.18;;;384.60;1868.80;;;;;;5074603;28;20051;-64
2022/04/01 04:50:47;;;;;;;15.52;4.82;;;384.70;1868.80;;;;;;5074312;28;20404;-64
2022/04/01 04:53:14;;;;;;;17.48;5.45;;;384.70;1868.80;;;;;;5074448;28;20373;-63
2022/04/01 04:55:41;;;;;;;19.92;6.38;;;384.70;1868.80;;;;;;5074483;28;20036;-63
2022/04/01 04:58:10;;;;;;;19.27;8.82;;;384.70;1868.80;;;;;;5074228;28;20150;-64
2022/04/01 05:00:39;;;;;;;24.98;9.00;;;384.60;1894.40;;;;;;5074515;28;20100;-64
2022/04/01 05:03:11;;;;;;;20.20;7.20;;;384.70;1894.40;;;;;;5074192;28;20503;-61
2022/04/01 05:05:46;;;;;;;11.68;4.63;;;384.70;1894.40;;;;;;5066732;28;20024;-63
2022/04/01 05:08:40;;;;;;;15.93;5.45;;;384.70;1894.40;;;;;;5073663;28;20047;-63
2022/04/01 05:11:26;;;;;;;10.02;4.57;;;384.70;1894.40;;;;;;5073914;28;20030;-64
2022/04/01 05:14:11;;;;;;;14.85;4.50;;;384.70;1894.40;;;;;;5073467;28;20492;-63
2022/04/01 05:16:51;;;;;;;18.92;4.70;;;384.70;1894.40;;;;;;5073817;28;20367;-61
2022/04/01 05:19:25;;;;;;;12.65;4.25;;;384.70;1894.40;;;;;;5073699;28;20032;-60
2022/04/01 05:22:03;;;;;;;14.20;4.68;;;384.70;1894.40;;;;;;5073538;28;20040;-60
2022/04/01 05:24:49;;;;;;;12.75;4.65;;;384.70;1894.40;;;;;;5073118;28;20486;-63
2022/04/01 05:27:34;;;;;;;19.08;5.25;;;384.70;1894.40;;;;;;5073445;28;20078;-60
2022/04/01 05:30:20;;;;;;;12.63;4.80;;;384.70;1894.40;;;;;;5073778;28;20078;-63
2022/04/01 05:33:15;;;;;;;15.10;4.80;;;384.70;1894.40;;;;;;5073334;28;20086;-60
2022/04/01 05:35:51;;;;;;;15.07;5.50;;;384.70;1894.40;;;;;;5065032;28;20493;-60
2022/04/01 05:38:19;;;;;;;12.77;5.13;;;384.60;1894.40;;;;;;5073600;28;20428;-60
2022/04/01 05:40:45;;;;;;;17.58;5.20;;;384.60;1894.40;;;;;;5073578;28;20036;-61
2022/04/01 05:43:14;;;;;;;12.70;4.65;;;384.70;1894.40;;;;;;5072455;28;20024;-64
2022/04/01 05:45:45;;;;;;;11.25;5.30;;;384.70;1894.40;;;;;;5073659;28;20056;-60
2022/04/01 05:48:11;;;;;;;15.68;4.53;;;384.70;1894.40;;;;;;5073611;28;20033;-60
2022/04/01 05:50:38;;;;;;;18.35;5.55;;;384.80;1894.40;;;;;;5073378;28;20029;-60
2022/04/01 05:53:06;;;;;;;18.77;6.43;;;384.80;1894.40;;;;;;5073455;28;20040;-63
2022/04/01 05:55:33;;;;;;;20.50;6.53;;;384.80;1894.40;;;;;;5073429;28;20378;-60
2022/04/01 05:58:04;;;;;;;12.80;6.50;;;384.80;1894.40;;;;;;5073091;28;20028;-63
2022/04/01 06:00:54;;;;;;;15.48;5.97;;;384.80;1868.80;;;;;;5073307;28;20044;-61
2022/04/01 06:03:47;;;;;;;13.10;5.40;;;384.80;1894.40;;;;;;5073935;28;20045;-64
2022/04/01 06:06:30;;;;;;;17.92;7.97;;;384.90;1894.40;;;;;;5082728;28;20035;-62
2022/04/01 06:09:17;;;;;;;21.80;10.90;;;384.90;1894.40;;;;;;5083308;28;20059;-62
2022/04/01 06:11:51;;;;;;;23.42;12.05;;;409.60;1920.00;;;;;;5078834;28;20119;-60
2022/04/01 06:14:34;;;;;;;16.50;8.23;;;409.60;1920.00;;;;;;5079262;28;20078;-60
2022/04/01 06:17:26;;;;;;;18.00;7.45;;;409.60;1920.00;;;;;;5085620;28;20384;-62
2022/04/01 06:19:55;;;;;;;21.77;7.88;;;409.60;1920.00;;;;;;5091328;28;20046;-62
2022/04/01 06:22:26;;;;;;;17.08;7.30;;;409.70;1920.00;;;;;;5073222;28;20049;-62
2022/04/01 06:25:16;;;;;;;15.23;7.35;;;409.70;1894.40;;;;;;5084530;28;20035;-64
2022/04/01 06:27:49;;;;;;;18.20;6.60;;;409.80;1920.00;;;;;;5083739;28;20032;-61
2022/04/01 06:30:21;;;;;;;13.60;6.03;;;409.80;1894.40;;;;;;5086180;28;20030;-61
2022/04/01 06:32:53;;;;;;;14.60;5.90;;;409.80;1894.40;;;;;;5090569;28;20292;-64
2022/04/01 06:35:39;;;;;;;12.20;5.78;;;409.90;1894.40;;;;;;5093434;28;20036;-65
2022/04/01 06:38:07;;;;;;;15.35;5.43;;;409.90;1894.40;;;;;;5093550;28;20062;-65
2022/04/01 06:40:55;;;;;;;13.88;5.63;;;410.00;1894.40;;;;;;5093293;28;20039;-65
2022/04/01 06:43:22;;;;;;;14.55;5.63;;;410.00;1894.40;;;;;;5093291;28;20054;-66
2022/04/01 06:45:48;;;;;;;15.38;4.88;;;410.00;1894.40;;;;;;5093313;28;20028;-65
2022/04/01 06:48:14;;;;;;;15.95;5.35;;;410.10;1894.40;;;;;;5093473;28;20031;-64
2022/04/01 06:50:49;;;;;;;14.25;5.15;;;410.10;1894.40;;;;;;5093325;28;20058;-65
2022/04/01 06:53:15;;;;;;;12.00;4.80;;;410.20;1894.40;;;;;;5093477;28;20415;-64
2022/04/01 06:55:41;;;;;;;13.65;4.85;;;410.20;1894.40;;;;;;5096127;28;20070;-65
2022/04/01 06:58:11;;;;;;;15.30;5.30;;;410.30;1894.40;;;;;;5097199;28;20358;-65
2022/04/01 07:00:38;;;;;;;19.30;7.00;;;410.50;1894.40;;;;;;5097055;28;20373;-65
2022/04/01 07:03:04;;;;;;;13.65;6.88;;;435.30;1894.40;;;;;;5096846;28;20020;-65
2022/04/01 07:05:35;;;;;;;18.83;5.70;;;435.50;1868.80;;;;;;5096882;28;20532;-65
2022/04/01 07:08:07;;;;;;;11.52;5.25;;;435.70;1843.20;;;;;;5096752;28;20067;-64
2022/04/01 07:10:33;;;;;;;14.60;5.68;;;435.70;1817.60;;;;;;5096754;28;20021;-66
2022/04/01 07:12:59;;;;;;;11.30;5.03;;;435.80;1817.60;;;;;;5096773;28;20119;-64
2022/04/01 07:15:25;;;;;;;15.10;5.53;;;436.00;1817.60;;;;;;5096764;28;20439;-64
2022/04/01 07:17:52;;;;;;;15.32;5.43;;;436.00;1792.00;;;;;;5096384;28;20081;-66
2022/04/01 07:20:18;;;;;;;13.93;4.90;;;436.10;1766.40;;;;;;5096436;28;20028;-65
2022/04/01 07:22:44;;;;;;;21.15;5.88;;;460.80;1766.40;;;;;;5096255;28;20401;-65
2022/04/01 07:25:10;;;;;;;14.98;5.38;;;460.90;1766.40;;;;;;5096523;28;20034;-66
2022/04/01 07:27:36;;;;;;;11.88;4.95;;;460.80;1766.40;;;;;;5096622;28;20487;-66
2022/04/01 07:30:03;;;;;;;17.50;5.38;;;460.90;1740.80;;;;;;5096387;28;20028;-65
2022/04/01 07:32:34;;;;;;;18.35;6.03;;;460.90;1766.40;;;;;;5096034;28;20036;-66
2022/04/01 07:35:02;;;;;;;14.77;5.65;;;460.90;1740.80;;;;;;5096356;28;20028;-66
2022/04/01 07:37:29;;;;;;;13.38;4.93;;;460.90;1740.80;;;;;;5096110;28;20024;-65
2022/04/01 07:39:57;;;;;;;9.63;4.88;;;460.90;1740.80;;;;;;5096339;28;20032;-65
2022/04/01 07:42:24;;;;;;;20.20;5.47;;;460.90;1740.80;;;;;;5096239;28;20028;-65
2022/04/01 07:45:08;;;;;;;11.60;4.65;;;461.00;1740.80;;;;;;5096647;28;20027;-64
2022/04/01 07:47:34;;;;;;;18.37;5.27;;;461.10;1740.80;;;;;;5095957;28;20023;-65
2022/04/01 07:50:01;;;;;;;12.77;5.53;;;461.30;1740.80;;;;;;5095835;28;20024;-64
2022/04/01 07:52:27;;;;;;;16.02;5.30;;;461.50;1715.20;;;;;;5096052;28;20488;-65
2022/04/01 07:54:53;;;;;;;12.90;5.05;;;461.70;1715.20;;;;;;5096006;28;20127;-65
2022/04/01 07:57:19;;;;;;;48.13;7.20;;;486.50;1689.60;;;;;;5095544;28;20116;-63
2022/04/01 07:59:46;;;;;;;17.38;4.43;;;486.70;1689.60;;;;;;5095958;28;20020;-65
2022/04/01 08:02:13;;;;;;;20.73;6.70;;;486.80;1664.00;;;;;;5095558;28;20496;-64
2022/04/01 08:04:39;;;;;;;14.02;5.45;;;487.00;1638.40;;;;;;5095890;28;20024;-65
2022/04/01 08:07:05;;;;;;;11.27;4.70;;;487.10;1612.80;;;;;;5094675;28;20031;-65
2022/04/01 08:09:33;;;;;;;16.15;4.53;;;487.30;1587.20;;;;;;5095905;28;20024;-64
2022/04/01 08:12:00;;;;;;;21.70;5.18;;;512.10;1561.60;;;;;;5095631;28;20028;-65
2022/04/01 08:14:27;;;;;;;19.98;4.68;;;512.30;1561.60;;;;;;5095540;28;20103;-64
2022/04/01 08:16:53;;;;;;;14.73;4.93;;;512.40;1536.00;;;;;;5094955;28;20107;-65
2022/04/01 08:19:19;;;;;;;14.90;5.72;;;512.40;1510.40;;;;;;5095241;28;20031;-66
2022/04/01 08:21:45;;;;;;;22.55;5.82;;;512.40;1510.40;;;;;;5094771;28;20040;-65
2022/04/01 08:24:16;;;;;;;15.13;5.70;;;512.40;1484.80;;;;;;5095085;28;20028;-65
2022/04/01 08:26:41;;;;;;;24.42;6.65;;;512.40;1510.40;;;;;;5095297;28;20017;-65
2022/04/01 08:29:07;;;;;;;16.13;5.32;;;512.40;1484.80;;;;;;5095333;28;20069;-65
2022/04/01 08:31:33;;;;;;;15.60;5.00;;;512.40;1510.40;;;;;;5095236;28;20461;-65
2022/04/01 08:33:59;;;;;;;13.98;5.20;;;512.30;1510.40;;;;;;5095299;28;20090;-66
2022/04/01 08:36:26;;;;;;;13.93;5.97;;;512.20;1510.40;;;;;;5094981;28;20020;-66
2022/04/01 08:38:52;;;;;;;14.50;4.53;;;512.20;1510.40;;;;;;5095233;28;20066;-65
2022/04/01 08:41:20;;;;;;;19.00;7.28;;;512.10;1510.40;;;;;;5095213;28;20031;-66
2022/04/01 08:43:47;;;;;;;9.00;4.07;;;512.10;1510.40;;;;;;5094921;28;20028;-65
2022/04/01 08:46:14;;;;;;;14.63;9.18;;;487.20;1459.20;;;;;;5094883;28;20025;-65
2022/04/01 08:48:41;;;;;;;18.20;10.23;;;487.20;1459.20;;;;;;5094770;28;20158;-64
2022/04/01 08:51:07;;;;;;;10.93;7.00;;;487.10;1433.60;;;;;;5094652;28;20016;-66
2022/04/01 08:53:37;;;;;;;13.07;6.60;;;487.00;1459.20;;;;;;5094544;28;20484;-65
2022/04/01 08:56:04;;;;;;;9.38;3.88;;;486.90;1484.80;;;;;;5094535;28;20027;-66
2022/04/01 08:58:30;;;;;;;17.50;4.78;;;486.80;1484.80;;;;;;5095015;28;20035;-66
2022/04/01 09:00:58;;;;;;;13.75;5.10;;;486.80;1536.00;;;;;;5094553;28;20035;-66
2022/04/01 09:03:24;;;;;;;14.88;4.88;;;486.80;1561.60;;;;;;5094769;28;20020;-66
2022/04/01 09:05:54;;;;;;;11.20;5.38;;;486.60;1587.20;;;;;;5075907;28;20384;-65
2022/04/01 09:08:33;;;;;;;9.80;5.30;;;486.50;1587.20;;;;;;5094638;28;20170;-66
2022/04/01 09:11:12;;;;;;;13.60;5.05;;;486.50;1587.20;;;;;;5094559;28;20028;-66
2022/04/01 09:13:46;;;;;;;8.77;5.07;;;486.50;1612.80;;;;;;5094201;28;20058;-66
2022/04/01 09:16:27;;;;;;;7.68;4.90;;;461.70;1587.20;;;;;;5094408;28;20031;-64
2022/04/01 09:18:54;;;;;;;8.32;5.20;;;461.60;1612.80;;;;;;5094334;28;20077;-65
2022/04/01 09:21:28;;;;;;;10.35;5.97;;;461.60;1612.80;;;;;;5094129;28;20072;-64
2022/04/01 09:23:55;;;;;;;11.27;5.57;;;461.50;1638.40;;;;;;5094366;28;20028;-65
2022/04/01 09:26:28;;;;;;;8.45;5.97;;;461.30;1664.00;;;;;;5093823;28;20546;-65
2022/04/01 09:28:54;;;;;;;12.45;6.88;;;461.30;1664.00;;;;;;5094344;28;20028;-65
2022/04/01 09:31:20;;;;;;;11.95;7.63;;;461.30;1689.60;;;;;;5094199;28;20028;-65
2022/04/01 09:33:47;;;;;;;9.23;7.00;;;461.30;1689.60;;;;;;5094128;28;20115;-65
2022/04/01 09:36:25;;;;;;;10.40;6.50;;;461.30;1689.60;;;;;;5093932;28;20035;-64
2022/04/01 09:39:15;;;;;;;9.00;6.50;;;461.30;1689.60;;;;;;5094159;28;20082;-64
2022/04/01 09:41:51;;;;;;;10.35;6.18;;;461.30;1689.60;;;;;;5094122;28;20066;-64
2022/04/01 09:44:20;;;;;;;7.70;4.93;;;461.30;1715.20;;;;;;5087166;28;20030;-59
2022/04/01 09:46:49;;;;;;;9.95;4.57;;;461.30;1689.60;;;;;;5089292;28;20026;-61
2022/04/01 09:49:33;;;;;;;6.55;5.15;;;461.30;1664.00;;;;;;5079121;28;20031;-64
2022/04/01 09:51:59;;;;;;;7.75;5.28;;;461.30;1664.00;;;;;;5073798;28;20095;-63
2022/04/01 09:54:26;;;;;;;9.48;6.13;;;461.30;1689.60;;;;;;5073791;28;20090;-60
2022/04/01 09:56:54;;;;;;;9.27;6.43;;;461.30;1689.60;;;;;;5073600;28;20024;-63
2022/04/01 09:59:22;;;;;;;6.72;5.13;;;461.20;1715.20;;;;;;5073380;28;20056;-63
2022/04/01 10:01:48;;;;;;;6.07;4.10;;;461.30;1715.20;;;;;;5073501;28;20501;-61
2022/04/01 10:04:26;;;;;;;4.95;4.28;;;461.20;1689.60;;;;;;5073617;28;20024;-58
2022/04/01 10:06:52;;;;;;;9.88;4.60;;;461.20;1664.00;;;;;;5057640;28;20024;-64
2022/04/01 10:09:21;;;;;;;6.85;5.05;;;461.20;1638.40;;;;;;5081077;28;20096;-60
2022/04/01 10:11:48;;;;;;;9.32;6.10;;;461.20;1638.40;;;;;;5082190;28;20103;-63
2022/04/01 10:14:24;;;;;;;11.90;7.35;;;461.30;1638.40;;;;;;5082822;28;20074;-65
2022/04/01 10:16:50;;;;;;;8.00;6.95;;;461.20;1664.00;;;;;;5081037;28;20019;-60
2022/04/01 10:19:29;;;;;;;7.47;4.57;;;461.20;1664.00;;;;;;5080693;28;20024;-65
2022/04/01 10:21:55;;;;;;;2.40;2.03;;;461.20;1638.40;;;;;;5081100;28;20107;-64
2022/04/01 10:24:51;;;;;;;6.70;2.05;;;461.20;1561.60;;;;;;5078178;28;20031;-65
2022/04/01 10:27:16;;;;;;;;;;;461.20;1536.00;;;;;;4990813;28;20034;-60
2022/04/01 10:29:45;;;;;;;5.32;1.60;;;461.20;1561.60;;;;;;4992465;28;19906;-64
2022/04/01 10:32:19;;;;;;;3.85;2.03;;;461.20;1561.60;;;;;;4994312;28;20039;-65
2022/04/01 10:34:46;;;;;;;;;;;461.20;1561.60;;;;;;4994624;28;20030;-62
2022/04/01 10:37:14;;;;;;;1.58;1.33;;;461.20;1536.00;;;;;;4994217;28;19905;-63
2022/04/01 10:39:51;;;;;;;2.20;1.25;;;461.20;1536.00;;;;;;4994182;28;20034;-64
2022/04/01 10:42:17;;;;;;;1.55;1.23;;;461.30;1561.60;;;;;;4994012;28;20349;-63
2022/04/01 10:44:47;;;;;;;3.95;1.98;;;461.30;1536.00;;;;;;4994218;28;20031;-62
2022/04/01 10:47:13;;;;;;;1.55;1.27;;;461.40;1536.00;;;;;;4994331;28;20479;-63
2022/04/01 10:52:23;;;;;;;3.67;1.30;;;461.50;1484.80;;;;;;4991893;28;20037;-64
2022/04/01 10:55:07;;;;;;;1.55;1.02;;;461.60;1459.20;;;;;;4993717;28;20026;-63
2022/04/01 10:57:47;;;;;;;2.58;1.35;;;461.60;1484.80;;;;;;4993032;28;20387;-62
2022/04/01 11:00:17;;;;;;;5.20;1.65;;;461.50;1484.80;;;;;;4993835;28;20038;-62
2022/04/01 11:02:45;;;;;;;2.13;1.10;;;461.60;1484.80;;;;;;4995293;28;20030;-63
2022/04/01 11:05:25;;;;;;;3.70;1.70;;;486.40;1459.20;;;;;;5049332;28;20041;-63
2022/04/01 11:08:20;;;;;;;4.30;2.25;;;486.50;1484.80;;;;;;5056903;28;20024;-62
2022/04/01 11:11:05;;;;;;;2.20;1.67;;;486.50;1459.20;;;;;;5056785;28;20025;-63
2022/04/01 11:13:31;;;;;;;4.75;1.85;;;486.50;1484.80;;;;;;5056270;28;20041;-63
2022/04/01 11:16:20;;;;;;;2.90;2.38;;;486.40;1484.80;;;;;;5056524;28;20021;-63
2022/04/01 11:19:22;;;;;;;5.57;2.05;;;486.40;1484.80;;;;;;5056458;28;20032;-63
2022/04/01 11:21:49;;;;;;;4.28;2.42;;;486.40;1459.20;;;;;;5055953;28;20041;-65
2022/04/01 11:24:33;;;;;;;2.67;2.10;;;486.40;1484.80;;;;;;5056232;28;20029;-64
2022/04/01 11:27:07;;;;;;;2.20;2.00;;;486.40;1459.20;;;;;;5056118;28;20033;-63
2022/04/01 11:29:33;;;;;;;4.47;2.13;;;486.40;1484.80;;;;;;5056310;28;20029;-65
2022/04/01 11:32:04;;;;;;;6.47;2.72;;;486.40;1484.80;;;;;;5055789;28;20028;-66
2022/04/01 11:34:30;;;;;;;3.45;2.70;;;486.40;1484.80;;;;;;5056195;28;20036;-65
2022/04/01 11:37:02;;;;;;;5.70;2.80;;;486.40;1459.20;;;;;;5056074;28;20025;-66
2022/04/01 11:39:29;;;;;;;3.42;2.28;;;486.40;1484.80;;;;;;5055972;28;20497;-60
2022/04/01 11:41:54;;;;;;;12.27;2.90;;;486.40;1484.80;;;;;;5055918;28;20037;-65
2022/04/01 11:44:22;;;;;;;20.98;3.25;;;486.40;1459.20;;;;;;5056048;28;20039;-62
2022/04/01 11:46:53;;;;;;;14.48;2.70;;;486.40;1484.80;;;;;;5055965;28;20021;-59
2022/04/01 11:49:19;;;;;;;6.75;3.30;;;486.50;1459.20;;;;;;5055753;28;20108;-63
2022/04/01 11:51:44;;;;;;;16.83;2.80;;;486.50;1459.20;;;;;;5055799;28;20083;-62
2022/04/01 11:54:10;;;;;;;29.55;3.75;;;486.50;1433.60;;;;;;5055726;28;20037;-61
2022/04/01 11:56:36;;;;;;;27.23;4.85;;;486.60;1433.60;;;;;;5055744;28;20577;-64
2022/04/01 11:59:04;;;;;;;9.70;2.67;;;486.70;1433.60;;;;;;5055666;28;20024;-59
2022/04/01 12:01:54;;;;;;;15.23;3.30;;;486.80;1433.60;;;;;;5055627;28;20071;-66
2022/04/01 12:04:30;;;;;;;18.30;3.53;;;486.80;1408.00;;;;;;5055607;28;20032;-65
2022/04/01 12:09:54;;;;;;;2.83;2.20;;;486.80;1356.80;;;;;;5055942;28;20028;-64
2022/04/01 12:12:24;;;;;;;8.27;1.83;;;486.70;1356.80;;;;;;5055218;28;20029;-66
2022/04/01 12:14:50;;;;;;;3.72;1.58;;;486.80;1356.80;;;;;;5055373;28;20040;-59
2022/04/01 12:17:16;;;;;;;14.55;1.92;;;486.90;1356.80;;;;;;5055344;28;20025;-62
2022/04/01 12:19:41;;;;;;;3.60;1.63;;;486.90;1356.80;;;;;;5055298;28;20079;-66
2022/04/01 12:22:09;;;;;;;10.85;2.47;;;486.80;1356.80;;;;;;5054966;28;20104;-66
2022/04/01 12:24:35;;;;;;;5.65;2.55;;;486.80;1433.60;;;;;;5055075;28;20039;-59
2022/04/01 12:27:03;;;;;;;3.45;2.13;;;486.60;1459.20;;;;;;5055016;28;20071;-66
2022/04/01 12:29:29;;;;;;;4.93;2.17;;;486.40;1433.60;;;;;;5054906;28;20543;-66
2022/04/01 12:32:04;;;;;;;4.97;2.55;;;486.40;1433.60;;;;;;5055110;28;20048;-64
2022/04/01 12:34:30;;;;;;;8.90;5.82;;;461.70;1459.20;;;;;;5054945;28;20543;-65
2022/04/01 12:37:02;;;;;;;29.45;9.57;;;461.60;1433.60;;;;;;5054908;28;20032;-64
2022/04/01 12:39:32;;;;;;;5.55;4.57;;;461.60;1459.20;;;;;;5055104;28;20029;-60
2022/04/01 12:42:01;;;;;;;5.38;3.38;;;461.50;1459.20;;;;;;5054988;28;20024;-60
2022/04/01 12:44:31;;;;;;;8.38;4.30;;;461.30;1459.20;;;;;;5054905;28;20029;-60
2022/04/01 12:47:00;;;;;;;15.18;7.35;;;461.30;1484.80;;;;;;5054516;28;20036;-64
2022/04/01 12:49:27;;;;;;;4.43;2.45;;;461.30;1484.80;;;;;;5054844;28;20132;-65
2022/04/01 12:52:03;;;;;;;3.13;1.92;;;461.20;1459.20;;;;;;5053934;28;20033;-60
2022/04/01 12:54:39;;;;;;;2.88;2.00;;;461.20;1459.20;;;;;;5054438;28;20047;-65
2022/04/01 12:57:11;;;;;;;2.85;1.60;;;461.10;1459.20;;;;;;5054555;28;20064;-66
2022/04/01 12:59:42;;;;;;;5.45;1.92;;;461.10;1459.20;;;;;;5054454;28;20078;-64
2022/04/01 13:02:12;;;;;;;1.90;1.60;;;461.00;1459.20;;;;;;5054550;28;20013;-63
2022/04/01 13:04:49;;;;;;;2.22;1.80;;;461.10;1459.20;;;;;;5054309;28;20021;-59
2022/04/01 13:07:18;;;;;;;3.90;2.40;;;461.10;1459.20;;;;;;5054539;28;20028;-66
2022/04/01 13:09:44;;;;;;;12.40;3.05;;;461.20;1484.80;;;;;;5054539;28;20099;-68
2022/04/01 13:12:10;;;;;;;6.28;2.47;;;461.20;1484.80;;;;;;5054386;28;20029;-69
2022/04/01 13:14:36;;;;;;;3.60;2.80;;;461.30;1510.40;;;;;;5054266;28;20108;-68
2022/04/01 13:17:13;;;;;;;16.95;2.90;;;461.30;1510.40;;;;;;5054291;28;20024;-69
2022/04/01 13:19:43;;;;;;;9.80;3.08;;;461.40;1484.80;;;;;;5054146;28;20386;-65
2022/04/01 13:22:09;;;;;;;5.25;2.50;;;461.30;1484.80;;;;;;5053925;28;20048;-60
2022/04/01 13:24:37;;;;;;;9.85;3.63;;;461.40;1459.20;;;;;;5053976;28;20029;-62
2022/04/01 13:27:04;;;;;;;21.02;3.47;;;461.50;1484.80;;;;;;5054191;28;20021;-66
2022/04/01 13:29:30;;;;;;;18.27;4.28;;;461.60;1433.60;;;;;;5054007;28;20067;-67
2022/04/01 13:31:55;;;;;;;10.23;3.97;;;486.40;1484.80;;;;;;5053947;28;20409;-61
2022/04/01 13:34:21;;;;;;;9.55;3.58;;;486.50;1484.80;;;;;;5053757;28;20072;-67
2022/04/01 13:36:49;;;;;;;13.10;3.10;;;486.50;1408.00;;;;;;5053764;28;20025;-64
2022/04/01 13:39:17;;;;;;;2.95;2.13;;;486.40;1382.40;;;;;;5054359;28;20535;-61
2022/04/01 13:41:43;;;;;;;6.95;2.80;;;486.40;1382.40;;;;;;5053898;28;20021;-60
2022/04/01 13:44:09;;;;;;;16.70;4.07;;;486.40;1356.80;;;;;;5054028;28;20025;-61
2022/04/01 13:46:35;;;;;;;16.48;5.45;;;461.70;1382.40;;;;;;5054058;28;20036;-66
2022/04/01 13:49:01;;;;;;;32.40;7.60;;;461.70;1382.40;;;;;;5053999;28;20025;-69
2022/04/01 13:51:27;;;;;;;20.02;4.55;;;461.70;1382.40;;;;;;5053828;28;20025;-69
2022/04/01 13:53:53;;;;;;;8.02;3.40;;;461.70;1382.40;;;;;;5053683;28;20094;-65
2022/04/01 13:56:19;;;;;;;3.88;2.92;;;461.70;1356.80;;;;;;5053670;28;20432;-65
2022/04/01 13:58:45;;;;;;;6.07;2.22;;;461.60;1356.80;;;;;;5053787;28;20025;-61
2022/04/01 14:01:11;;;;;;;15.55;2.90;;;486.40;1356.80;;;;;;5054195;28;20025;-61
2022/04/01 14:03:38;;;;;;;11.10;4.10;;;461.70;1356.80;;;;;;5035109;28;20037;-63